LFRGLFQQ

Guest
Details From LFRG - Deauville Saint Gatien
To LFQQ - Lille Lesquin
Flight Number -
Tags generated
Created
Modified
Stats Distance 135 nm / 249 km
Max Altitude 11,600 ft / 3,536 m
Waypoints 3
Social Downloads 1
Likes 0
Share VATSIM

Download

Looking for another format? Having issues loading an existing format? Contact us
Advertisement - Login to hide

Notes

Basic altitude profile: - Ascent Rate: 1500ft/min - Ascent Speed: 150kts - Cruise Altitude: 20000ft - Cruise Speed: 250kts - Descent Rate: 1500ft/min - Descent Speed: 150kts Options: - Use NATs: yes - Use PACOTS: yes - Use low airways: yes - Use high airways: no

Route

LFRG ABB LFQQ

ID Type Via Altitude Latitude Longitude Leg Dist Tot Dist Heading (true) Name
O LFRG APT - 0 ft / 0 m 49.36530˚ 0.15432˚ - 0 nm - Deauville Saint Gatien
ABB VOR - 11,600 ft / 3,536 m 50.13514˚ 1.85469˚ 80 nm 80 nm 54° / 56° ABBEVILLE VOR-DME
O LFQQ APT - 0 ft / 0 m 50.56633˚ 3.09538˚ 54 nm 134 nm 61° / 62° Lille Lesquin

Altitude Profile

Advertisement - Login to hide

LFRG

Details ICAO LFRG (DOL)
Name Deauville Saint Gatien
Region France
Timezone Europe/Paris (UTC+1.0)
Stats Elevation 479 ft / 146 m (AMSL)
Location 49.365296° 0.154324°
Runways 1
Magnetic Variation 0.141° W

METAR

LFRG 151800Z AUTO 35010KT 320V050 9999 BKN024 BKN032 OVC039 05/02 Q1004 TEMPO 4000 SHRA BKN015CB BECMG 34015G25KT

Decode

TAF

Not found

Departure Runways

ID Width Length Bearing (true) Bearing (mag) Surface Threshold Offset Overrun Length
12 148 ft / 45 m 8,344 ft / 2,543 m 117.22° 117.36° Asphalt 1,476 ft / 450 m 0 ft / 0 m
30 148 ft / 45 m 8,344 ft / 2,543 m 297.25° 297.39° Asphalt 1,378 ft / 420 m 0 ft / 0 m

LFQQ

Details ICAO LFQQ (LIL)
Name Lille Lesquin
Region France
Timezone Europe/Paris (UTC+1.0)
Stats Elevation 156 ft / 48 m (AMSL)
Location 50.566335° 3.095384°
Runways 2
Magnetic Variation 0.704° E

METAR

LFQQ 151800Z AUTO 28009KT 9999 FEW014 BKN020 BKN031 04/02 Q0998 TEMPO 33015G25KT 3000 SHRASN BKN008 BKN015CB

Decode

TAF

TAF LFQQ 151700Z 1518/1624 34008KT 9999 BKN025 TEMPO 1518/1613 33015G25KT 3000 SHRASN BKN008 BKN015CB BECMG 1609/1612 27010KT

Decode

Destination Runways

ID Width Length Bearing (true) Bearing (mag) Surface Threshold Offset Overrun Length
02 98 ft / 30 m 5,168 ft / 1,575 m 14.83° 14.13° Asphalt 0 ft / 0 m 0 ft / 0 m
08 146 ft / 45 m 9,250 ft / 2,819 m 77.36° 76.66° Asphalt 0 ft / 0 m 0 ft / 0 m
20 98 ft / 30 m 5,168 ft / 1,575 m 194.83° 194.13° Asphalt 0 ft / 0 m 0 ft / 0 m
26 146 ft / 45 m 9,250 ft / 2,819 m 257.39° 256.69° Asphalt 918 ft / 280 m 0 ft / 0 m

Approach Navaids

Runway Type Ident Frequency Range Bearing (true) Bearing (mag) Slope Elevation
08 Localiser LL 110.10 MHz 18 nm / 33 km 77.13° 76.43° - 135 ft / 41 m (AMSL)
26 Localiser LIL 110.75 MHz 18 nm / 33 km 257.13° 256.43° - 157 ft / 48 m (AMSL)
26 Glidescope LIL 110.75 MHz 15 nm / 28 km 257.00° 256.30° 3.00° 129 ft / 39 m (AMSL)
26 DME LIL 110.75 MHz 25 nm / 46 km - - - 130 ft / 40 m (AMSL)

Popular Alternatives